Terminal Aerodrome Forecast
Issued by NWS Cleveland, OH

Home | Current Version | Previous Version | Graphics & Text | Print | Product List | Glossary Off
Versions: 1 2 3 4 5 6 7 8 9 10 11 12 13 14 15 16 17 18 19 20 21 22 23 24 25 26

000
FTUS41 KCLE 280500
TAFERI
TAF
KERI 280539Z 2806/2906 32010KT P6SM SCT020 OVC040
      TEMPO 2806/2809 6SM -SHSN OVC020
     FM281500 34010KT P6SM BKN035
     FM290300 26003KT P6SM SKC=

USA.gov is the U.S. government's official web portal to all federal, state and local government web resources and services.